Robert Gray Army Air Field Airport
KGRK : now visible

Airfield :











YOU CAN JOIN US ON...

 
LOGIN :

Register | Disclaimer

   EN    FR    IT 

 









Legend :    VFR   Marginal VFR   IFR   Intensive IFR   Very Intensive IFR
Visi :
Ceiling :
>= 8 km
>= 3000ft
5 to 8 km
1000 to 3000 ft
1500m to 5 km
500 to 1000 ft
800 to 1500m
200 to 500 ft
< 800m
< 200 ft
Symbols :   Thunderstorms  Fog  Heavy snow  Heavy precipitations  Wind > 20 kt







- Airport Elevation : 1015 ft
- IATA code : GRK


KGRK - Robert Gray Army Air Field

CURRENT METAR :
  • 180958Z AUTO 16006KT 10SM CLR 23/22 A3001 RMK AO2 SLP150 T02320215

EXPIRED METARs :
  • 180858Z AUTO 16009KT 10SM CLR 24/21 A3001 RMK AO2 SLP150 T02360212 58001
  • 180758Z AUTO 16008KT 10SM CLR 25/21 A3001 RMK AO2 SLP150 T02450211

TAF TAF KGRK
Valid from the 18 at 08:00 until the 19 at 14:00 UTC


180800Z 1808/1914 15010KT 9999 SCT050 QNH2994INS
BECMG 1810/1811 17009KT 9999 FEW015 SCT030 QNH3000INS
TEMPO 1811/1814 BKN015
BECMG 1814/1815 18012G20KT 9999 FEW040 QNH2996INS
BECMG 1902/1903 18008KT 9999 FEW030 QNH2999INS
BECMG 1909/1910 18008KT 9000 BR BKN015 QNH3001INS TX36/1822Z TN24/1812Z
KZHU FIR / North America



MET'MAP, your aeronautical weather chart ! - Copyright ORBIFLY December 2007 - Disclaimer

ORBIFLY MET'MAP TEAM :

Programming & Development : Alexandra Zaïnal
Concept & Development : Baudouin d'Aumeries
Co-Development & Prog : Marc-Olivier Méhu
Technical & hardware support : Manuel Goepfert

Contact : metmap@orbifly.com




SOURCES & CREDITS :

   NOAA       Earth
Advisory